ANZ605 NZWN-NZQN
Flight info
| Callsign | ANZ605 |
|---|---|
| Flight time | 1h 39m |
| Altitude | 34000 |
| Route | UPLUD DCT SABDA Y622 MESIX H159 CH Y266 ELRUV |
| Aircraft | A320/M-SDE3FGHIRWY/LB1 |
Departure
| Time | 2026-05-06 23:29 |
|---|---|
| Airport | Wellington International Airport (NZWN) |
Arrival
| Time | 2026-05-07 01:08 |
|---|---|
| Airport | Queenstown Airport (NZQN) |
| Time | Latitude | Longitude | Altitude | Speed | Heading |
|---|---|---|---|---|---|
| 2026-05-06 22:19 | -41.32983 | 174.80974 | 27 ft | 0 kts | 158° |
| 2026-05-06 23:13 | -41.32973 | 174.80969 | 48 ft | 3 kts | 162° |
| 2026-05-06 23:13 | -41.32952 | 174.80962 | 26 ft | 3 kts | 176° |
| 2026-05-06 23:13 | -41.32932 | 174.80964 | 26 ft | 3 kts | 202° |
| 2026-05-06 23:13 | -41.32917 | 174.80977 | 26 ft | 3 kts | 250° |
| 2026-05-06 23:14 | -41.32915 | 174.80989 | 26 ft | 0 kts | 272° |
| 2026-05-06 23:17 | -41.32915 | 174.80986 | 26 ft | 0 kts | 272° |
| 2026-05-06 23:18 | -41.32914 | 174.80965 | 26 ft | 5 kts | 272° |
| 2026-05-06 23:18 | -41.32913 | 174.80910 | 26 ft | 5 kts | 270° |
| 2026-05-06 23:18 | -41.32930 | 174.80887 | 26 ft | 0 kts | 201° |
| 2026-05-06 23:18 | -41.32943 | 174.80882 | 26 ft | 4 kts | 195° |
| 2026-05-06 23:19 | -41.32965 | 174.80858 | 26 ft | 5 kts | 251° |
| 2026-05-06 23:19 | -41.32982 | 174.80806 | 26 ft | 7 kts | 226° |
| 2026-05-06 23:19 | -41.33039 | 174.80793 | 26 ft | 10 kts | 181° |
| 2026-05-06 23:19 | -41.33122 | 174.80789 | 26 ft | 14 kts | 182° |
| 2026-05-06 23:20 | -41.33228 | 174.80784 | 26 ft | 17 kts | 182° |
| 2026-05-06 23:20 | -41.33288 | 174.80782 | 26 ft | 10 kts | 182° |
| 2026-05-06 23:20 | -41.33368 | 174.80777 | 26 ft | 13 kts | 182° |
| 2026-05-06 23:20 | -41.33447 | 174.80772 | 26 ft | 10 kts | 182° |
| 2026-05-06 23:21 | -41.33492 | 174.80768 | 26 ft | 7 kts | 186° |
| 2026-05-06 23:21 | -41.33514 | 174.80764 | 26 ft | 0 kts | 190° |
| 2026-05-06 23:27 | -41.33524 | 174.80761 | 26 ft | 4 kts | 193° |
| 2026-05-06 23:27 | -41.33558 | 174.80735 | 26 ft | 7 kts | 221° |
| 2026-05-06 23:27 | -41.33588 | 174.80667 | 26 ft | 10 kts | 251° |
| 2026-05-06 23:27 | -41.33573 | 174.80627 | 26 ft | 5 kts | 355° |
| 2026-05-06 23:28 | -41.33566 | 174.80628 | 26 ft | 0 kts | 5° |
| 2026-05-06 23:28 | -41.33548 | 174.80630 | 26 ft | 9 kts | 5° |
| 2026-05-06 23:28 | -41.33192 | 174.80656 | 27 ft | 92 kts | 3° |
| 2026-05-06 23:28 | -41.32345 | 174.80706 | 222 ft | 137 kts | 2° |
| 2026-05-06 23:29 | -41.31368 | 174.80772 | 992 ft | 145 kts | 3° |
| 2026-05-06 23:29 | -41.30337 | 174.80855 | 1849 ft | 150 kts | 359° |
| 2026-05-06 23:29 | -41.29285 | 174.80947 | 2519 ft | 157 kts | 358° |
| 2026-05-06 23:29 | -41.28125 | 174.81020 | 2857 ft | 177 kts | 356° |
| 2026-05-06 23:30 | -41.26846 | 174.81081 | 3540 ft | 183 kts | 353° |
| 2026-05-06 23:30 | -41.25593 | 174.80848 | 4334 ft | 182 kts | 340° |
| 2026-05-06 23:30 | -41.24410 | 174.80224 | 5148 ft | 186 kts | 333° |
| 2026-05-06 23:30 | -41.23197 | 174.79572 | 5923 ft | 189 kts | 338° |
| 2026-05-06 23:31 | -41.21927 | 174.79037 | 6597 ft | 194 kts | 341° |
| 2026-05-06 23:31 | -41.20600 | 174.78579 | 7293 ft | 200 kts | 342° |
| 2026-05-06 23:31 | -41.19244 | 174.78114 | 8078 ft | 202 kts | 342° |
| 2026-05-06 23:31 | -41.17879 | 174.77644 | 8896 ft | 204 kts | 342° |
| 2026-05-06 23:32 | -41.16503 | 174.77168 | 9738 ft | 205 kts | 341° |
| 2026-05-06 23:32 | -41.15265 | 174.76275 | 10514 ft | 206 kts | 316° |
| 2026-05-06 23:32 | -41.14546 | 174.74610 | 11220 ft | 218 kts | 288° |
| 2026-05-06 23:32 | -41.14648 | 174.72542 | 11904 ft | 240 kts | 255° |
| 2026-05-06 23:33 | -41.15728 | 174.70736 | 12606 ft | 262 kts | 227° |
| 2026-05-06 23:33 | -41.17226 | 174.69311 | 13351 ft | 273 kts | 212° |
| 2026-05-06 23:33 | -41.19114 | 174.68673 | 14000 ft | 293 kts | 187° |
| 2026-05-06 23:33 | -41.21244 | 174.68601 | 14188 ft | 315 kts | 191° |
| 2026-05-06 23:34 | -41.23459 | 174.68052 | 14349 ft | 334 kts | 199° |
| 2026-05-06 23:34 | -41.25757 | 174.67137 | 14485 ft | 355 kts | 203° |
| 2026-05-06 23:34 | -41.28145 | 174.66071 | 14856 ft | 367 kts | 203° |
| 2026-05-06 23:34 | -41.30589 | 174.65007 | 15452 ft | 372 kts | 202° |
| 2026-05-06 23:35 | -41.33076 | 174.64001 | 16065 ft | 375 kts | 201° |
| 2026-05-06 23:35 | -41.35599 | 174.63051 | 16697 ft | 379 kts | 200° |
| 2026-05-06 23:35 | -41.38192 | 174.62127 | 17350 ft | 382 kts | 199° |
| 2026-05-06 23:35 | -41.40740 | 174.61245 | 17965 ft | 385 kts | 199° |
| 2026-05-06 23:36 | -41.43378 | 174.60337 | 18584 ft | 387 kts | 199° |
| 2026-05-06 23:36 | -41.46000 | 174.59427 | 19123 ft | 391 kts | 199° |
| 2026-05-06 23:36 | -41.48641 | 174.58503 | 19646 ft | 394 kts | 199° |
| 2026-05-06 23:36 | -41.51302 | 174.57566 | 20190 ft | 397 kts | 199° |
| 2026-05-06 23:37 | -41.53982 | 174.56615 | 20746 ft | 400 kts | 199° |
| 2026-05-06 23:37 | -41.56682 | 174.55652 | 21253 ft | 403 kts | 199° |
| 2026-05-06 23:37 | -41.59394 | 174.54683 | 21763 ft | 406 kts | 199° |
| 2026-05-06 23:37 | -41.62133 | 174.53709 | 22267 ft | 408 kts | 199° |
| 2026-05-06 23:38 | -41.64892 | 174.52730 | 22773 ft | 411 kts | 199° |
| 2026-05-06 23:38 | -41.67671 | 174.51741 | 23250 ft | 415 kts | 199° |
| 2026-05-06 23:38 | -41.70468 | 174.50739 | 23714 ft | 418 kts | 199° |
| 2026-05-06 23:38 | -41.73281 | 174.49730 | 24109 ft | 421 kts | 199° |
| 2026-05-06 23:39 | -41.76119 | 174.48713 | 24512 ft | 423 kts | 199° |
| 2026-05-06 23:39 | -41.78917 | 174.47478 | 24904 ft | 421 kts | 208° |
| 2026-05-06 23:39 | -41.81490 | 174.45640 | 25287 ft | 418 kts | 218° |
| 2026-05-06 23:39 | -41.83894 | 174.43450 | 25685 ft | 419 kts | 219° |
| 2026-05-06 23:40 | -41.86314 | 174.41242 | 26095 ft | 422 kts | 219° |
| 2026-05-06 23:40 | -41.88745 | 174.39023 | 26489 ft | 424 kts | 219° |
| 2026-05-06 23:40 | -41.90399 | 174.37516 | 26749 ft | 426 kts | 219° |
| 2026-05-06 23:40 | -41.92855 | 174.35280 | 27124 ft | 428 kts | 219° |
| 2026-05-06 23:41 | -41.96131 | 174.32290 | 27634 ft | 431 kts | 219° |
| 2026-05-06 23:41 | -41.97815 | 174.30752 | 27881 ft | 433 kts | 220° |
| 2026-05-06 23:41 | -42.00310 | 174.28471 | 28269 ft | 435 kts | 220° |
| 2026-05-06 23:41 | -42.02820 | 174.26173 | 28634 ft | 438 kts | 220° |
| 2026-05-06 23:42 | -42.05347 | 174.23859 | 29024 ft | 441 kts | 220° |
| 2026-05-06 23:42 | -42.07899 | 174.21524 | 29391 ft | 444 kts | 220° |
| 2026-05-06 23:42 | -42.10448 | 174.19189 | 29749 ft | 446 kts | 220° |
| 2026-05-06 23:42 | -42.13030 | 174.16821 | 30116 ft | 449 kts | 220° |
| 2026-05-06 23:43 | -42.15615 | 174.14447 | 30426 ft | 451 kts | 220° |
| 2026-05-06 23:43 | -42.18209 | 174.12056 | 30764 ft | 453 kts | 220° |
| 2026-05-06 23:43 | -42.20818 | 174.09644 | 31108 ft | 454 kts | 220° |
| 2026-05-06 23:43 | -42.23427 | 174.07237 | 31496 ft | 454 kts | 220° |
| 2026-05-06 23:44 | -42.26030 | 174.04846 | 32019 ft | 451 kts | 220° |
| 2026-05-06 23:44 | -42.28617 | 174.02469 | 32543 ft | 448 kts | 220° |
| 2026-05-06 23:44 | -42.31177 | 174.00106 | 33075 ft | 445 kts | 221° |
| 2026-05-06 23:44 | -42.33723 | 173.97741 | 33609 ft | 442 kts | 221° |
| 2026-05-06 23:45 | -42.36252 | 173.95387 | 33949 ft | 441 kts | 221° |
| 2026-05-06 23:45 | -42.41244 | 173.90746 | 34016 ft | 430 kts | 221° |
| 2026-05-06 23:46 | -42.46181 | 173.86156 | 34013 ft | 431 kts | 222° |
| 2026-05-06 23:46 | -42.51114 | 173.81553 | 34000 ft | 431 kts | 222° |
| 2026-05-06 23:47 | -42.56045 | 173.76935 | 33994 ft | 431 kts | 222° |
| 2026-05-06 23:47 | -42.61012 | 173.72292 | 33994 ft | 431 kts | 222° |
| 2026-05-06 23:48 | -42.65946 | 173.67670 | 33992 ft | 431 kts | 222° |
| 2026-05-06 23:48 | -42.70881 | 173.63039 | 33996 ft | 431 kts | 222° |
| 2026-05-06 23:49 | -42.75807 | 173.58398 | 33987 ft | 431 kts | 222° |
| 2026-05-06 23:49 | -42.80730 | 173.53761 | 33987 ft | 431 kts | 222° |
| 2026-05-06 23:50 | -42.85661 | 173.49105 | 33998 ft | 432 kts | 223° |
| 2026-05-06 23:50 | -42.93067 | 173.42064 | 33973 ft | 433 kts | 223° |
| 2026-05-06 23:51 | -42.98010 | 173.37376 | 33968 ft | 433 kts | 222° |
| 2026-05-06 23:51 | -43.02962 | 173.32669 | 33965 ft | 433 kts | 223° |
| 2026-05-06 23:52 | -43.07898 | 173.27951 | 33980 ft | 433 kts | 223° |
| 2026-05-06 23:52 | -43.12287 | 173.22563 | 33967 ft | 415 kts | 240° |
| 2026-05-06 23:53 | -43.15711 | 173.16254 | 33973 ft | 413 kts | 241° |
| 2026-05-06 23:53 | -43.19135 | 173.09928 | 33958 ft | 414 kts | 241° |
| 2026-05-06 23:54 | -43.22589 | 173.03533 | 33960 ft | 415 kts | 241° |
| 2026-05-06 23:54 | -43.26019 | 172.97166 | 33946 ft | 415 kts | 242° |
| 2026-05-06 23:55 | -43.29433 | 172.90803 | 33936 ft | 415 kts | 242° |
| 2026-05-06 23:55 | -43.32856 | 172.84430 | 33929 ft | 415 kts | 241° |
| 2026-05-06 23:56 | -43.36285 | 172.78045 | 33914 ft | 415 kts | 242° |
| 2026-05-06 23:56 | -43.39699 | 172.71647 | 33904 ft | 415 kts | 242° |
| 2026-05-06 23:57 | -43.43100 | 172.65245 | 33918 ft | 415 kts | 242° |
| 2026-05-06 23:57 | -43.46505 | 172.58830 | 33912 ft | 415 kts | 242° |
| 2026-05-06 23:58 | -43.49918 | 172.52403 | 33908 ft | 415 kts | 242° |
| 2026-05-06 23:58 | -43.52865 | 172.45683 | 33923 ft | 409 kts | 248° |
| 2026-05-06 23:59 | -43.55727 | 172.38898 | 33884 ft | 410 kts | 247° |
| 2026-05-06 23:59 | -43.58595 | 172.32078 | 33897 ft | 413 kts | 247° |
| 2026-05-07 00:00 | -43.61485 | 172.25171 | 33854 ft | 417 kts | 247° |
| 2026-05-07 00:00 | -43.63934 | 172.19316 | 33882 ft | 427 kts | 247° |
| 2026-05-07 00:01 | -43.67426 | 172.10960 | 33875 ft | 434 kts | 247° |
| 2026-05-07 00:01 | -43.70450 | 172.03734 | 33857 ft | 435 kts | 247° |
| 2026-05-07 00:02 | -43.73504 | 171.96392 | 33868 ft | 440 kts | 246° |
| 2026-05-07 00:02 | -43.76557 | 171.89039 | 33842 ft | 440 kts | 247° |
| 2026-05-07 00:03 | -43.79594 | 171.81693 | 33839 ft | 440 kts | 247° |
| 2026-05-07 00:03 | -43.82627 | 171.74320 | 33834 ft | 440 kts | 247° |
| 2026-05-07 00:04 | -43.85683 | 171.66967 | 33835 ft | 441 kts | 246° |
| 2026-05-07 00:04 | -43.88829 | 171.59638 | 33824 ft | 443 kts | 245° |
| 2026-05-07 00:05 | -43.91982 | 171.52304 | 33839 ft | 443 kts | 246° |
| 2026-05-07 00:05 | -43.95123 | 171.44925 | 33828 ft | 444 kts | 246° |
| 2026-05-07 00:06 | -43.98259 | 171.37518 | 33826 ft | 445 kts | 246° |
| 2026-05-07 00:06 | -44.01387 | 171.30103 | 33826 ft | 445 kts | 246° |
| 2026-05-07 00:07 | -44.04521 | 171.22677 | 33842 ft | 445 kts | 246° |
| 2026-05-07 00:07 | -44.07644 | 171.15242 | 33840 ft | 445 kts | 247° |
| 2026-05-07 00:08 | -44.10782 | 171.07756 | 33843 ft | 445 kts | 247° |
| 2026-05-07 00:08 | -44.13885 | 171.00316 | 33839 ft | 444 kts | 247° |
| 2026-05-07 00:09 | -44.16989 | 170.92866 | 33837 ft | 444 kts | 247° |
| 2026-05-07 00:09 | -44.20076 | 170.85444 | 33831 ft | 440 kts | 246° |
| 2026-05-07 00:10 | -44.23133 | 170.78070 | 33826 ft | 439 kts | 247° |
| 2026-05-07 00:10 | -44.26180 | 170.70685 | 33828 ft | 439 kts | 247° |
| 2026-05-07 00:11 | -44.29222 | 170.63301 | 33827 ft | 439 kts | 247° |
| 2026-05-07 00:11 | -44.32287 | 170.55917 | 33414 ft | 438 kts | 247° |
| 2026-05-07 00:12 | -44.33796 | 170.52253 | 32516 ft | 433 kts | 248° |
| 2026-05-07 00:12 | -44.35287 | 170.48605 | 31473 ft | 430 kts | 248° |
| 2026-05-07 00:12 | -44.36757 | 170.44999 | 30544 ft | 426 kts | 247° |
| 2026-05-07 00:12 | -44.38216 | 170.41423 | 29640 ft | 421 kts | 247° |
| 2026-05-07 00:13 | -44.39665 | 170.37875 | 28669 ft | 416 kts | 247° |
| 2026-05-07 00:13 | -44.40605 | 170.35570 | 28087 ft | 412 kts | 247° |
| 2026-05-07 00:13 | -44.42033 | 170.32062 | 27189 ft | 406 kts | 247° |
| 2026-05-07 00:13 | -44.43869 | 170.27558 | 26100 ft | 398 kts | 247° |
| 2026-05-07 00:14 | -44.44791 | 170.25286 | 25557 ft | 395 kts | 247° |
| 2026-05-07 00:14 | -44.46133 | 170.21969 | 24833 ft | 389 kts | 247° |
| 2026-05-07 00:14 | -44.47445 | 170.18737 | 24388 ft | 375 kts | 247° |
| 2026-05-07 00:14 | -44.48714 | 170.15622 | 24014 ft | 360 kts | 248° |
| 2026-05-07 00:15 | -44.49935 | 170.12622 | 23601 ft | 347 kts | 248° |
| 2026-05-07 00:15 | -44.51108 | 170.09728 | 23168 ft | 337 kts | 248° |
| 2026-05-07 00:15 | -44.52241 | 170.06930 | 22766 ft | 325 kts | 249° |
| 2026-05-07 00:15 | -44.53345 | 170.04198 | 22400 ft | 322 kts | 249° |
| 2026-05-07 00:16 | -44.54438 | 170.01472 | 22013 ft | 321 kts | 249° |
| 2026-05-07 00:16 | -44.55530 | 169.98744 | 21635 ft | 318 kts | 249° |
| 2026-05-07 00:16 | -44.56611 | 169.96048 | 21256 ft | 316 kts | 249° |
| 2026-05-07 00:16 | -44.57688 | 169.93354 | 20883 ft | 317 kts | 249° |
| 2026-05-07 00:17 | -44.58764 | 169.90654 | 20504 ft | 317 kts | 249° |
| 2026-05-07 00:17 | -44.59839 | 169.87959 | 20113 ft | 318 kts | 249° |
| 2026-05-07 00:17 | -44.60929 | 169.85241 | 19712 ft | 319 kts | 249° |
| 2026-05-07 00:17 | -44.62020 | 169.82522 | 19307 ft | 321 kts | 249° |
| 2026-05-07 00:18 | -44.63114 | 169.79790 | 18901 ft | 322 kts | 249° |
| 2026-05-07 00:18 | -44.64203 | 169.77064 | 18505 ft | 320 kts | 249° |
| 2026-05-07 00:18 | -44.65291 | 169.74329 | 18126 ft | 320 kts | 250° |
| 2026-05-07 00:18 | -44.66380 | 169.71598 | 17675 ft | 321 kts | 250° |
| 2026-05-07 00:19 | -44.67470 | 169.68871 | 17272 ft | 320 kts | 250° |
| 2026-05-07 00:19 | -44.68556 | 169.66147 | 16866 ft | 319 kts | 250° |
| 2026-05-07 00:19 | -44.69635 | 169.63433 | 16475 ft | 317 kts | 250° |
| 2026-05-07 00:19 | -44.70704 | 169.60739 | 16078 ft | 316 kts | 251° |
| 2026-05-07 00:20 | -44.71768 | 169.58061 | 15706 ft | 310 kts | 250° |
| 2026-05-07 00:20 | -44.72818 | 169.55424 | 15319 ft | 308 kts | 250° |
| 2026-05-07 00:20 | -44.73858 | 169.52807 | 14948 ft | 306 kts | 251° |
| 2026-05-07 00:20 | -44.74892 | 169.50184 | 14559 ft | 306 kts | 251° |
| 2026-05-07 00:21 | -44.75917 | 169.47582 | 14184 ft | 302 kts | 251° |
| 2026-05-07 00:21 | -44.76934 | 169.45004 | 13810 ft | 301 kts | 251° |
| 2026-05-07 00:21 | -44.77957 | 169.42398 | 13324 ft | 303 kts | 251° |
| 2026-05-07 00:21 | -44.78977 | 169.39797 | 13039 ft | 299 kts | 251° |
| 2026-05-07 00:22 | -44.79980 | 169.37272 | 12793 ft | 293 kts | 251° |
| 2026-05-07 00:22 | -44.80967 | 169.34771 | 12439 ft | 292 kts | 252° |
| 2026-05-07 00:22 | -44.81759 | 169.32194 | 12076 ft | 280 kts | 265° |
| 2026-05-07 00:22 | -44.82203 | 169.29563 | 11723 ft | 274 kts | 267° |
| 2026-05-07 00:23 | -44.82633 | 169.26972 | 11382 ft | 272 kts | 266° |
| 2026-05-07 00:23 | -44.83066 | 169.24374 | 11018 ft | 273 kts | 265° |
| 2026-05-07 00:23 | -44.83502 | 169.21750 | 10648 ft | 276 kts | 265° |
| 2026-05-07 00:23 | -44.83941 | 169.19103 | 10284 ft | 280 kts | 265° |
| 2026-05-07 00:24 | -44.84385 | 169.16420 | 9902 ft | 284 kts | 264° |
| 2026-05-07 00:24 | -44.84946 | 169.13722 | 9512 ft | 294 kts | 254° |
| 2026-05-07 00:24 | -44.85994 | 169.11194 | 9278 ft | 301 kts | 239° |
| 2026-05-07 00:24 | -44.87484 | 169.09043 | 8788 ft | 315 kts | 223° |
| 2026-05-07 00:25 | -44.89409 | 169.07441 | 8265 ft | 326 kts | 206° |
| 2026-05-07 00:25 | -44.91600 | 169.06569 | 7827 ft | 331 kts | 191° |
| 2026-05-07 00:25 | -44.93906 | 169.06492 | 7498 ft | 331 kts | 177° |
| 2026-05-07 00:25 | -44.96130 | 169.06728 | 7448 ft | 308 kts | 177° |
| 2026-05-07 00:26 | -44.98181 | 169.06913 | 7458 ft | 282 kts | 182° |
| 2026-05-07 00:26 | -45.00050 | 169.06501 | 7464 ft | 268 kts | 204° |
| 2026-05-07 00:26 | -45.01644 | 169.05262 | 7469 ft | 259 kts | 224° |
| 2026-05-07 00:26 | -45.02820 | 169.03405 | 7466 ft | 250 kts | 244° |
| 2026-05-07 00:27 | -45.03476 | 169.01257 | 7458 ft | 228 kts | 261° |
| 2026-05-07 00:27 | -45.03647 | 168.99091 | 7464 ft | 219 kts | 277° |
| 2026-05-07 00:27 | -45.03455 | 168.97024 | 7461 ft | 203 kts | 290° |
| 2026-05-07 00:27 | -45.02987 | 168.95235 | 7458 ft | 191 kts | 302° |
| 2026-05-07 00:28 | -45.02314 | 168.93639 | 7381 ft | 187 kts | 306° |
| 2026-05-07 00:28 | -45.01616 | 168.92063 | 6919 ft | 187 kts | 306° |
| 2026-05-07 00:28 | -45.00929 | 168.90514 | 6479 ft | 188 kts | 306° |
| 2026-05-07 00:28 | -45.00264 | 168.88944 | 5976 ft | 191 kts | 298° |
| 2026-05-07 00:29 | -44.99896 | 168.87093 | 5466 ft | 197 kts | 279° |
| 2026-05-07 00:29 | -44.99984 | 168.85153 | 5010 ft | 201 kts | 261° |
| 2026-05-07 00:30 | -45.00948 | 168.79367 | 3834 ft | 214 kts | 254° |
| 2026-05-07 00:30 | -45.01403 | 168.77296 | 4279 ft | 226 kts | 255° |
| 2026-05-07 00:30 | -45.01810 | 168.75132 | 4869 ft | 231 kts | 259° |
| 2026-05-07 00:30 | -45.02167 | 168.72916 | 4898 ft | 224 kts | 261° |
| 2026-05-07 00:31 | -45.02474 | 168.70885 | 4890 ft | 203 kts | 261° |
| 2026-05-07 00:31 | -45.02778 | 168.68809 | 4911 ft | 222 kts | 257° |
| 2026-05-07 00:31 | -45.03635 | 168.67014 | 5289 ft | 229 kts | 219° |
| 2026-05-07 00:31 | -45.05088 | 168.66133 | 5896 ft | 233 kts | 183° |
| 2026-05-07 00:32 | -45.06644 | 168.66716 | 6433 ft | 238 kts | 147° |
| 2026-05-07 00:32 | -45.07939 | 168.68185 | 7010 ft | 241 kts | 133° |
| 2026-05-07 00:32 | -45.08995 | 168.70044 | 7617 ft | 244 kts | 121° |
| 2026-05-07 00:32 | -45.10083 | 168.71929 | 8232 ft | 251 kts | 136° |
| 2026-05-07 00:33 | -45.11490 | 168.73408 | 8822 ft | 257 kts | 152° |
| 2026-05-07 00:33 | -45.13163 | 168.74337 | 9383 ft | 259 kts | 170° |
| 2026-05-07 00:33 | -45.14949 | 168.74582 | 9858 ft | 260 kts | 187° |
| 2026-05-07 00:33 | -45.16784 | 168.74403 | 9971 ft | 268 kts | 189° |
| 2026-05-07 00:34 | -45.18654 | 168.74212 | 9990 ft | 270 kts | 188° |
| 2026-05-07 00:34 | -45.20523 | 168.74030 | 9989 ft | 270 kts | 188° |
| 2026-05-07 00:34 | -45.22400 | 168.73853 | 9998 ft | 270 kts | 188° |
| 2026-05-07 00:34 | -45.24269 | 168.73680 | 9985 ft | 268 kts | 188° |
| 2026-05-07 00:35 | -45.26126 | 168.73505 | 9980 ft | 267 kts | 188° |
| 2026-05-07 00:35 | -45.27984 | 168.73328 | 9976 ft | 268 kts | 188° |
| 2026-05-07 00:35 | -45.29843 | 168.73152 | 9968 ft | 268 kts | 188° |
| 2026-05-07 00:35 | -45.31679 | 168.72871 | 9964 ft | 265 kts | 195° |
| 2026-05-07 00:36 | -45.33463 | 168.72238 | 9980 ft | 264 kts | 204° |
| 2026-05-07 00:36 | -45.35257 | 168.71564 | 10356 ft | 279 kts | 189° |
| 2026-05-07 00:36 | -45.37266 | 168.71546 | 10631 ft | 294 kts | 181° |
| 2026-05-07 00:36 | -45.39356 | 168.71683 | 11033 ft | 301 kts | 179° |
| 2026-05-07 00:37 | -45.41406 | 168.72393 | 11431 ft | 310 kts | 154° |
| 2026-05-07 00:37 | -45.43104 | 168.74267 | 11831 ft | 313 kts | 127° |
| 2026-05-07 00:37 | -45.44144 | 168.76946 | 11928 ft | 306 kts | 100° |
| 2026-05-07 00:37 | -45.44318 | 168.79874 | 11946 ft | 292 kts | 73° |
| 2026-05-07 00:38 | -45.43620 | 168.82458 | 11948 ft | 273 kts | 45° |
| 2026-05-07 00:38 | -45.42255 | 168.84161 | 11945 ft | 255 kts | 18° |
| 2026-05-07 00:38 | -45.40593 | 168.84833 | 11950 ft | 247 kts | 4° |
| 2026-05-07 00:38 | -45.38898 | 168.85229 | 11948 ft | 247 kts | 3° |
| 2026-05-07 00:39 | -45.37220 | 168.85799 | 11950 ft | 254 kts | 19° |
| 2026-05-07 00:39 | -45.35819 | 168.87443 | 11954 ft | 272 kts | 46° |
| 2026-05-07 00:39 | -45.34800 | 168.89746 | 11954 ft | 278 kts | 52° |
| 2026-05-07 00:39 | -45.33849 | 168.92138 | 11955 ft | 278 kts | 52° |
| 2026-05-07 00:40 | -45.32914 | 168.94536 | 11950 ft | 277 kts | 53° |
| 2026-05-07 00:40 | -45.31972 | 168.96929 | 11955 ft | 281 kts | 52° |
| 2026-05-07 00:40 | -45.31002 | 168.99370 | 11951 ft | 287 kts | 52° |
| 2026-05-07 00:40 | -45.30012 | 169.01860 | 11949 ft | 290 kts | 52° |
| 2026-05-07 00:41 | -45.29022 | 169.04343 | 11950 ft | 290 kts | 52° |
| 2026-05-07 00:41 | -45.28027 | 169.06839 | 11950 ft | 290 kts | 52° |
| 2026-05-07 00:41 | -45.27031 | 169.09331 | 11951 ft | 291 kts | 52° |
| 2026-05-07 00:41 | -45.26035 | 169.11822 | 11950 ft | 290 kts | 52° |
| 2026-05-07 00:42 | -45.25042 | 169.14317 | 11951 ft | 290 kts | 52° |
| 2026-05-07 00:42 | -45.24073 | 169.16822 | 11951 ft | 290 kts | 52° |
| 2026-05-07 00:42 | -45.23144 | 169.19355 | 11953 ft | 289 kts | 52° |
| 2026-05-07 00:42 | -45.22220 | 169.21890 | 11952 ft | 289 kts | 52° |
| 2026-05-07 00:43 | -45.21298 | 169.24423 | 11954 ft | 289 kts | 52° |
| 2026-05-07 00:43 | -45.20190 | 169.26707 | 11946 ft | 272 kts | 32° |
| 2026-05-07 00:43 | -45.18647 | 169.28081 | 11953 ft | 259 kts | 17° |
| 2026-05-07 00:43 | -45.17018 | 169.29137 | 11957 ft | 258 kts | 15° |
| 2026-05-07 00:44 | -45.15356 | 169.30176 | 11947 ft | 258 kts | 16° |
| 2026-05-07 00:44 | -45.13732 | 169.31179 | 11953 ft | 257 kts | 15° |
| 2026-05-07 00:44 | -45.12075 | 169.32208 | 11952 ft | 257 kts | 15° |
| 2026-05-07 00:44 | -45.10439 | 169.33237 | 11953 ft | 258 kts | 16° |
| 2026-05-07 00:45 | -45.08789 | 169.34262 | 11950 ft | 258 kts | 15° |
| 2026-05-07 00:45 | -45.07167 | 169.35277 | 11946 ft | 255 kts | 15° |
| 2026-05-07 00:45 | -45.05536 | 169.36315 | 11958 ft | 259 kts | 15° |
| 2026-05-07 00:45 | -45.03881 | 169.37282 | 11956 ft | 253 kts | 7° |
| 2026-05-07 00:46 | -45.02758 | 169.37501 | 11952 ft | 243 kts | 353° |
| 2026-05-07 00:46 | -45.01138 | 169.37020 | 11951 ft | 236 kts | 333° |
| 2026-05-07 00:46 | -44.99820 | 169.35662 | 11947 ft | 238 kts | 314° |
| 2026-05-07 00:46 | -44.99002 | 169.33617 | 11952 ft | 246 kts | 293° |
| 2026-05-07 00:47 | -44.98788 | 169.31171 | 11942 ft | 254 kts | 281° |
| 2026-05-07 00:47 | -44.98710 | 169.28668 | 11952 ft | 256 kts | 281° |
| 2026-05-07 00:47 | -44.98632 | 169.26143 | 11953 ft | 257 kts | 281° |
| 2026-05-07 00:47 | -44.98549 | 169.23624 | 11947 ft | 256 kts | 280° |
| 2026-05-07 00:48 | -44.98465 | 169.21110 | 11949 ft | 257 kts | 280° |
| 2026-05-07 00:48 | -44.98376 | 169.18523 | 11647 ft | 260 kts | 280° |
| 2026-05-07 00:48 | -44.98288 | 169.15975 | 11272 ft | 259 kts | 280° |
| 2026-05-07 00:48 | -44.98196 | 169.13438 | 10900 ft | 259 kts | 279° |
| 2026-05-07 00:49 | -44.98108 | 169.10913 | 10537 ft | 258 kts | 279° |
| 2026-05-07 00:49 | -44.98020 | 169.08378 | 10176 ft | 257 kts | 279° |
| 2026-05-07 00:49 | -44.97854 | 169.05890 | 9822 ft | 251 kts | 290° |
| 2026-05-07 00:49 | -44.97080 | 169.03749 | 9448 ft | 243 kts | 313° |
| 2026-05-07 00:50 | -44.95755 | 169.02318 | 9064 ft | 242 kts | 336° |
| 2026-05-07 00:50 | -44.94143 | 169.01833 | 8679 ft | 246 kts | 358° |
| 2026-05-07 00:50 | -44.92459 | 169.02410 | 8297 ft | 257 kts | 22° |
| 2026-05-07 00:50 | -44.91079 | 169.04047 | 7913 ft | 266 kts | 49° |
| 2026-05-07 00:51 | -44.90371 | 169.06471 | 7530 ft | 276 kts | 78° |
| 2026-05-07 00:51 | -44.90550 | 169.09185 | 7154 ft | 282 kts | 102° |
| 2026-05-07 00:51 | -44.91071 | 169.11842 | 6951 ft | 282 kts | 103° |
| 2026-05-07 00:51 | -44.91597 | 169.14507 | 6946 ft | 282 kts | 102° |
| 2026-05-07 00:52 | -44.92124 | 169.17181 | 6945 ft | 282 kts | 102° |
| 2026-05-07 00:52 | -44.92666 | 169.19826 | 6947 ft | 284 kts | 108° |
| 2026-05-07 00:52 | -44.93783 | 169.22126 | 6945 ft | 288 kts | 140° |
| 2026-05-07 00:52 | -44.95566 | 169.23348 | 6955 ft | 287 kts | 166° |
| 2026-05-07 00:53 | -44.97481 | 169.24174 | 6946 ft | 288 kts | 159° |
| 2026-05-07 00:53 | -44.99408 | 169.24899 | 6945 ft | 290 kts | 180° |
| 2026-05-07 00:53 | -45.01413 | 169.24491 | 6953 ft | 295 kts | 201° |
| 2026-05-07 00:53 | -45.03379 | 169.23642 | 6946 ft | 296 kts | 203° |
| 2026-05-07 00:54 | -45.05225 | 169.22458 | 6948 ft | 286 kts | 225° |
| 2026-05-07 00:54 | -45.06470 | 169.20404 | 6956 ft | 270 kts | 249° |
| 2026-05-07 00:54 | -45.06860 | 169.17945 | 6950 ft | 248 kts | 277° |
| 2026-05-07 00:54 | -45.06361 | 169.15754 | 6953 ft | 226 kts | 306° |
| 2026-05-07 00:55 | -45.05415 | 169.14052 | 6950 ft | 217 kts | 313° |
| 2026-05-07 00:55 | -45.04428 | 169.12458 | 6951 ft | 214 kts | 314° |
| 2026-05-07 00:55 | -45.03196 | 169.11326 | 7003 ft | 216 kts | 346° |
| 2026-05-07 00:55 | -45.01689 | 169.11446 | 7773 ft | 222 kts | 11° |
| 2026-05-07 00:56 | -45.00203 | 169.12112 | 8727 ft | 223 kts | 14° |
| 2026-05-07 00:56 | -44.98725 | 169.12879 | 9650 ft | 224 kts | 15° |
| 2026-05-07 00:56 | -44.97288 | 169.13682 | 10476 ft | 226 kts | 15° |
| 2026-05-07 00:56 | -44.95815 | 169.14542 | 11334 ft | 228 kts | 15° |
| 2026-05-07 00:57 | -44.94360 | 169.15408 | 11816 ft | 226 kts | 15° |
| 2026-05-07 00:57 | -44.92907 | 169.16288 | 11483 ft | 228 kts | 15° |
| 2026-05-07 00:57 | -44.91444 | 169.17161 | 11181 ft | 228 kts | 15° |
| 2026-05-07 00:57 | -44.89988 | 169.18024 | 10958 ft | 225 kts | 15° |
| 2026-05-07 00:58 | -44.88545 | 169.18870 | 10624 ft | 226 kts | 15° |
| 2026-05-07 00:58 | -44.87091 | 169.19714 | 10342 ft | 225 kts | 15° |
| 2026-05-07 00:58 | -44.85613 | 169.20219 | 10142 ft | 215 kts | 355° |
| 2026-05-07 00:58 | -44.84199 | 169.19787 | 9952 ft | 207 kts | 332° |
| 2026-05-07 00:59 | -44.82509 | 169.16671 | 9553 ft | 212 kts | 285° |
| 2026-05-07 00:59 | -44.82588 | 169.14569 | 9347 ft | 222 kts | 259° |
| 2026-05-07 00:59 | -44.83404 | 169.12673 | 9132 ft | 236 kts | 230° |
| 2026-05-07 01:00 | -44.84873 | 169.11525 | 8905 ft | 249 kts | 200° |
| 2026-05-07 01:00 | -44.86551 | 169.10921 | 8676 ft | 250 kts | 199° |
| 2026-05-07 01:00 | -44.88237 | 169.10332 | 8440 ft | 249 kts | 199° |
| 2026-05-07 01:00 | -44.89920 | 169.09742 | 8198 ft | 248 kts | 199° |
| 2026-05-07 01:01 | -44.91588 | 169.09153 | 7976 ft | 247 kts | 198° |
| 2026-05-07 01:01 | -44.93247 | 169.08562 | 7738 ft | 245 kts | 199° |
| 2026-05-07 01:01 | -44.94893 | 169.07971 | 7503 ft | 243 kts | 198° |
| 2026-05-07 01:01 | -44.96501 | 169.07364 | 7382 ft | 232 kts | 197° |
| 2026-05-07 01:02 | -44.98074 | 169.06935 | 7156 ft | 229 kts | 192° |
| 2026-05-07 01:02 | -44.99627 | 169.06520 | 6966 ft | 224 kts | 199° |
| 2026-05-07 01:02 | -45.01042 | 169.05739 | 6793 ft | 213 kts | 214° |
| 2026-05-07 01:02 | -45.02196 | 169.04503 | 6566 ft | 205 kts | 231° |
| 2026-05-07 01:03 | -45.03024 | 169.02911 | 6237 ft | 198 kts | 247° |
| 2026-05-07 01:03 | -45.03503 | 169.01118 | 5849 ft | 193 kts | 261° |
| 2026-05-07 01:03 | -45.03653 | 168.99251 | 5331 ft | 190 kts | 274° |
| 2026-05-07 01:03 | -45.03519 | 168.97394 | 4890 ft | 186 kts | 286° |
| 2026-05-07 01:04 | -45.03126 | 168.95656 | 4562 ft | 187 kts | 296° |
| 2026-05-07 01:04 | -45.02521 | 168.94106 | 4261 ft | 177 kts | 303° |
| 2026-05-07 01:04 | -45.01885 | 168.92662 | 3976 ft | 165 kts | 303° |
| 2026-05-07 01:04 | -45.01291 | 168.91313 | 3732 ft | 172 kts | 302° |
| 2026-05-07 01:05 | -45.00648 | 168.89859 | 3483 ft | 165 kts | 301° |
| 2026-05-07 01:05 | -45.00140 | 168.88509 | 3215 ft | 149 kts | 289° |
| 2026-05-07 01:05 | -44.99903 | 168.87123 | 3005 ft | 143 kts | 275° |
| 2026-05-07 01:05 | -44.99903 | 168.85738 | 2795 ft | 141 kts | 262° |
| 2026-05-07 01:06 | -45.00085 | 168.84389 | 2578 ft | 140 kts | 258° |
| 2026-05-07 01:06 | -45.00278 | 168.83044 | 2367 ft | 140 kts | 259° |
| 2026-05-07 01:06 | -45.00503 | 168.81708 | 2141 ft | 140 kts | 253° |
| 2026-05-07 01:06 | -45.00810 | 168.80410 | 1936 ft | 140 kts | 252° |
| 2026-05-07 01:07 | -45.01083 | 168.79097 | 1732 ft | 139 kts | 256° |
| 2026-05-07 01:07 | -45.01331 | 168.77780 | 1517 ft | 138 kts | 255° |
| 2026-05-07 01:07 | -45.01552 | 168.76460 | 1349 ft | 139 kts | 258° |
| 2026-05-07 01:07 | -45.01752 | 168.75151 | 1198 ft | 127 kts | 258° |
| 2026-05-07 01:08 | -45.01896 | 168.74255 | 1169 ft | 52 kts | 259° |
| 2026-05-07 01:08 | -45.01939 | 168.74060 | 1164 ft | 12 kts | 211° |
| 2026-05-07 01:08 | -45.02000 | 168.74026 | 1163 ft | 8 kts | 202° |
| 2026-05-07 01:08 | -45.02021 | 168.74013 | 1164 ft | 5 kts | 203° |
| 2026-05-07 01:09 | -45.02045 | 168.74003 | 1165 ft | 3 kts | 181° |
| 2026-05-07 01:09 | -45.02051 | 168.74004 | 1163 ft | 0 kts | 171° |
| 2026-05-07 01:09 | -45.02052 | 168.74005 | 1163 ft | 0 kts | 171° |
| 2026-05-07 01:10 | -45.02055 | 168.74005 | 1164 ft | 2 kts | 169° |
| 2026-05-07 01:10 | -45.02076 | 168.74033 | 1163 ft | 6 kts | 123° |
| 2026-05-07 01:10 | -45.02098 | 168.74090 | 1164 ft | 7 kts | 119° |
| 2026-05-07 01:11 | -45.02129 | 168.74154 | 1163 ft | 9 kts | 135° |
| 2026-05-07 01:11 | -45.02186 | 168.74194 | 1164 ft | 7 kts | 158° |
| 2026-05-07 01:11 | -45.02217 | 168.74209 | 1164 ft | 2 kts | 175° |
| 2026-05-07 01:11 | -45.02224 | 168.74189 | 1164 ft | 2 kts | 248° |
| 2026-05-07 01:12 | -45.02231 | 168.74162 | 1163 ft | 4 kts | 251° |
| 2026-05-07 01:12 | -45.02237 | 168.74136 | 1164 ft | 2 kts | 251° |
| 2026-05-07 01:12 | -45.02238 | 168.74133 | 1164 ft | 0 kts | 251° |